Fairchance, PA (15436)

3:08 AM EDT on August 26, 2016 (GMT -0400)
Uniontown | | Change Station

Elev 1102 ft 39.90 °N, 79.73 °W | Updated 28 seconds ago

Mostly Cloudy
Mostly Cloudy
76.1 °F
Feels Like 76 °F
N
0.0
Wind Variable Wind from ESE
Gusts 0.0 mph

Today
High -- | Low -- °F
--% Chance of Precip.
Yesterday
High -- | Low -- °F
Precip. -- in
Pressure 30.12 in
Visibility 10.0 miles
Clouds Mostly Cloudy 2300 ft
Heat Index 76 °F
Dew Point 73 °F
Humidity 89%
Rainfall 0.00 in
Snow Depth Not available.
6:41 AM 7:58 PM
Last Quarter, 37% visible
SPECI KMGW 260700Z AUTO 21004KT 10SM BKN023 25/22 A3012 RMK AO2 T02500222
Pressure 30.12 in
Visibility 10.0 miles
Clouds Mostly Cloudy 2300 ft
Heat Index 76 °F
Dew Point 73 °F
Humidity 89%
Rainfall 0.00 in
Snow Depth Not available.
6:41 AM 7:58 PM
Last Quarter, 37% visible
SPECI KMGW 260700Z AUTO 21004KT 10SM BKN023 25/22 A3012 RMK AO2 T02500222

10-Day Weather Forecast

Almanac

Astronomy

Aug. 26, 2016 Rise Set
Actual Time
Civil Twilight
Nautical Twilight
Astronomical Twilight
Moon
Length of Visible Light
Length of Day
Tomorrow will be .
, % of the Moon is Illuminated

Today's Extremes

State Highs State Lows

Community

WunderPhotos

Upload Photos

1,935,063 photos uploaded!

WunderBlog® & News

Nearby

Air Quality

  Air Quality AQ Index Pollutant
Not available.

Snow Depth

Station Depth Elevation

Earthquake Activity

City Distance Mag. Time & Date
Minimum magnitude displayed is 2.5.

Coastal Water Temperatures

Place Temperature

Stations

Nearby Weather Stations

Station Location Temp. Windchill Dew Point Humidity Wind Precip. Elev Updated Type
                   

Watches & Warnings

There are currently no watches in effect.